KIRK/IRK METAR and TAF weather

Enter ICAO airport designator
Station Type Date Time Source
KIRK METAR 2020/09/20 05:55 UTC NOAA

KIRK 200555Z AUTO 15004KT 10SM CLR 09/07 A3028 RMK AO2 SLP257 T00890072 10167 20089 402000078 51005


Station Type Date Time Source
KIRK Decoded METAR 2020/09/20 05:55 UTC NOAA

KIRKSVILLE REGIONAL AIRPORT , MO, United States (KIRK) 40-06N 092-33W 293M
Sep 20, 2020 - 01:55 AM EDT / 2020.09.20 0555 UTC
Wind: from the SSE (150 degrees) at 5 MPH (4 KT):0
Visibility: 10 mile(s):0
Sky conditions: clear
Temperature: 48.0 F (8.9 C)
Dew Point: 45.0 F (7.2 C)
Relative Humidity: 89%
Pressure (altimeter): 30.28 in. Hg (1025 hPa)
Pressure tendency: 0.01 inches (0.5 hPa) higher than three hours ago
ob: KIRK 200555Z AUTO 15004KT 10SM CLR 09/07 A3028 RMK AO2 SLP257 T00890072 10167 20089 402000078 51005
cycle: 6

Station Type Date Time Source
KIRK TAF UTC NOAA

Error!

Example: see airport list